sensor_id;sensor_type;location;lat;lon;timestamp;pressure;altitude;pressure_sealevel;temperature
71205;BMP180;58935;54.498;18.544;2022-10-16T00:02:05;100228.80;;;13.10
71205;BMP180;58935;54.498;18.544;2022-10-16T00:04:31;100227.00;;;13.08
71205;BMP180;58935;54.498;18.544;2022-10-16T00:06:56;100222.40;;;13.08
71205;BMP180;58935;54.498;18.544;2022-10-16T00:09:21;100219.00;;;13.10
71205;BMP180;58935;54.498;18.544;2022-10-16T00:11:46;100219.20;;;13.08
71205;BMP180;58935;54.498;18.544;2022-10-16T00:14:14;100230.20;;;13.10
71205;BMP180;58935;54.498;18.544;2022-10-16T00:16:40;100229.80;;;13.08
71205;BMP180;58935;54.498;18.544;2022-10-16T00:19:05;100237.60;;;13.10
71205;BMP180;58935;54.498;18.544;2022-10-16T00:21:32;100231.80;;;13.10
71205;BMP180;58935;54.498;18.544;2022-10-16T00:24:00;100229.60;;;13.10
71205;BMP180;58935;54.498;18.544;2022-10-16T00:26:27;100233.60;;;13.12
71205;BMP180;58935;54.498;18.544;2022-10-16T00:28:52;100229.60;;;13.20
71205;BMP180;58935;54.498;18.544;2022-10-16T00:31:20;100226.40;;;13.20
71205;BMP180;58935;54.498;18.544;2022-10-16T00:33:45;100223.60;;;13.20
71205;BMP180;58935;54.498;18.544;2022-10-16T00:36:13;100232.00;;;13.30
71205;BMP180;58935;54.498;18.544;2022-10-16T00:38:39;100231.80;;;13.30
71205;BMP180;58935;54.498;18.544;2022-10-16T00:41:05;100235.40;;;13.32
71205;BMP180;58935;54.498;18.544;2022-10-16T00:43:36;100235.80;;;13.40
71205;BMP180;58935;54.498;18.544;2022-10-16T00:46:07;100239.20;;;13.40
71205;BMP180;58935;54.498;18.544;2022-10-16T00:48:33;100242.20;;;13.40
71205;BMP180;58935;54.498;18.544;2022-10-16T00:50:59;100241.60;;;13.40
71205;BMP180;58935;54.498;18.544;2022-10-16T00:53:25;100232.00;;;13.48
71205;BMP180;58935;54.498;18.544;2022-10-16T00:55:51;100245.80;;;13.50
71205;BMP180;58935;54.498;18.544;2022-10-16T00:58:16;100241.20;;;13.50
71205;BMP180;58935;54.498;18.544;2022-10-16T01:00:42;100242.40;;;13.50
71205;BMP180;58935;54.498;18.544;2022-10-16T01:05:44;100242.60;;;13.60
71205;BMP180;58935;54.498;18.544;2022-10-16T01:08:16;100238.20;;;13.60
71205;BMP180;58935;54.498;18.544;2022-10-16T01:10:50;100241.20;;;13.60
71205;BMP180;58935;54.498;18.544;2022-10-16T01:13:22;100239.80;;;13.60
71205;BMP180;58935;54.498;18.544;2022-10-16T01:15:56;100245.20;;;13.64
71205;BMP180;58935;54.498;18.544;2022-10-16T01:18:45;100239.40;;;13.70
71205;BMP180;58935;54.498;18.544;2022-10-16T01:21:19;100240.40;;;13.70
71205;BMP180;58935;54.498;18.544;2022-10-16T01:23:53;100239.60;;;13.70
71205;BMP180;58935;54.498;18.544;2022-10-16T01:26:33;100238.80;;;13.70
71205;BMP180;58935;54.498;18.544;2022-10-16T01:29:13;100234.40;;;13.70
71205;BMP180;58935;54.498;18.544;2022-10-16T01:31:44;100234.00;;;13.70
71205;BMP180;58935;54.498;18.544;2022-10-16T01:34:18;100236.00;;;13.80
71205;BMP180;58935;54.498;18.544;2022-10-16T01:36:49;100244.60;;;13.80
71205;BMP180;58935;54.498;18.544;2022-10-16T01:39:18;100250.80;;;13.80
71205;BMP180;58935;54.498;18.544;2022-10-16T01:41:48;100246.20;;;13.80
71205;BMP180;58935;54.498;18.544;2022-10-16T01:44:20;100250.80;;;13.86
71205;BMP180;58935;54.498;18.544;2022-10-16T01:46:48;100257.20;;;13.90
71205;BMP180;58935;54.498;18.544;2022-10-16T01:49:15;100255.60;;;13.90
71205;BMP180;58935;54.498;18.544;2022-10-16T01:51:45;100254.20;;;13.90
71205;BMP180;58935;54.498;18.544;2022-10-16T01:54:12;100258.80;;;13.90
71205;BMP180;58935;54.498;18.544;2022-10-16T01:56:39;100260.80;;;13.92
71205;BMP180;58935;54.498;18.544;2022-10-16T01:59:10;100260.20;;;14.00
71205;BMP180;58935;54.498;18.544;2022-10-16T02:01:39;100264.60;;;14.00
71205;BMP180;58935;54.498;18.544;2022-10-16T02:04:13;100266.20;;;14.00
71205;BMP180;58935;54.498;18.544;2022-10-16T02:06:40;100265.60;;;14.02
71205;BMP180;58935;54.498;18.544;2022-10-16T02:09:06;100262.80;;;14.10
71205;BMP180;58935;54.498;18.544;2022-10-16T02:11:31;100259.80;;;14.10
71205;BMP180;58935;54.498;18.544;2022-10-16T02:14:02;100254.80;;;14.10
71205;BMP180;58935;54.498;18.544;2022-10-16T02:16:33;100250.00;;;14.10
71205;BMP180;58935;54.498;18.544;2022-10-16T02:18:58;100249.20;;;14.10
71205;BMP180;58935;54.498;18.544;2022-10-16T02:21:28;100246.80;;;14.16
71205;BMP180;58935;54.498;18.544;2022-10-16T02:24:01;100244.60;;;14.20
71205;BMP180;58935;54.498;18.544;2022-10-16T02:26:31;100240.60;;;14.20
71205;BMP180;58935;54.498;18.544;2022-10-16T02:29:02;100243.40;;;14.12
71205;BMP180;58935;54.498;18.544;2022-10-16T02:31:33;100239.20;;;14.10
71205;BMP180;58935;54.498;18.544;2022-10-16T02:34:01;100236.80;;;14.10
71205;BMP180;58935;54.498;18.544;2022-10-16T02:36:29;100234.20;;;14.06
71205;BMP180;58935;54.498;18.544;2022-10-16T02:38:54;100236.00;;;14.00
71205;BMP180;58935;54.498;18.544;2022-10-16T02:41:21;100237.80;;;14.00
71205;BMP180;58935;54.498;18.544;2022-10-16T02:43:47;100237.40;;;14.00
71205;BMP180;58935;54.498;18.544;2022-10-16T02:46:12;100239.40;;;13.90
71205;BMP180;58935;54.498;18.544;2022-10-16T02:48:37;100239.20;;;13.90
71205;BMP180;58935;54.498;18.544;2022-10-16T02:51:04;100240.40;;;13.90
71205;BMP180;58935;54.498;18.544;2022-10-16T02:53:30;100248.00;;;13.90
71205;BMP180;58935;54.498;18.544;2022-10-16T02:55:55;100242.40;;;13.88
71205;BMP180;58935;54.498;18.544;2022-10-16T02:58:21;100241.80;;;13.80
71205;BMP180;58935;54.498;18.544;2022-10-16T03:00:46;100236.60;;;13.80
71205;BMP180;58935;54.498;18.544;2022-10-16T03:03:11;100235.40;;;13.80
71205;BMP180;58935;54.498;18.544;2022-10-16T03:05:37;100233.60;;;13.80
71205;BMP180;58935;54.498;18.544;2022-10-16T03:08:02;100226.80;;;13.74
71205;BMP180;58935;54.498;18.544;2022-10-16T03:10:27;100229.60;;;13.70
71205;BMP180;58935;54.498;18.544;2022-10-16T03:12:53;100232.60;;;13.70
71205;BMP180;58935;54.498;18.544;2022-10-16T03:15:18;100228.60;;;13.70
71205;BMP180;58935;54.498;18.544;2022-10-16T03:17:43;100235.00;;;13.70
71205;BMP180;58935;54.498;18.544;2022-10-16T03:20:09;100235.60;;;13.62
71205;BMP180;58935;54.498;18.544;2022-10-16T03:22:34;100229.00;;;13.60
71205;BMP180;58935;54.498;18.544;2022-10-16T03:24:59;100232.60;;;13.60
71205;BMP180;58935;54.498;18.544;2022-10-16T03:27:25;100231.40;;;13.60
71205;BMP180;58935;54.498;18.544;2022-10-16T03:29:50;100227.20;;;13.60
71205;BMP180;58935;54.498;18.544;2022-10-16T03:32:15;100234.80;;;13.60
71205;BMP180;58935;54.498;18.544;2022-10-16T03:34:40;100234.60;;;13.60
71205;BMP180;58935;54.498;18.544;2022-10-16T03:37:06;100237.20;;;13.68
71205;BMP180;58935;54.498;18.544;2022-10-16T03:39:31;100238.40;;;13.70
71205;BMP180;58935;54.498;18.544;2022-10-16T03:41:56;100237.00;;;13.70
71205;BMP180;58935;54.498;18.544;2022-10-16T03:44:22;100236.40;;;13.70
71205;BMP180;58935;54.498;18.544;2022-10-16T03:46:47;100235.20;;;13.70
71205;BMP180;58935;54.498;18.544;2022-10-16T03:49:12;100234.60;;;13.70
71205;BMP180;58935;54.498;18.544;2022-10-16T03:51:37;100238.80;;;13.80
71205;BMP180;58935;54.498;18.544;2022-10-16T03:54:03;100233.80;;;13.80
71205;BMP180;58935;54.498;18.544;2022-10-16T03:56:28;100229.80;;;13.80
71205;BMP180;58935;54.498;18.544;2022-10-16T03:58:53;100232.00;;;13.80
71205;BMP180;58935;54.498;18.544;2022-10-16T04:01:18;100241.00;;;13.90
71205;BMP180;58935;54.498;18.544;2022-10-16T04:03:44;100238.80;;;13.90
71205;BMP180;58935;54.498;18.544;2022-10-16T04:06:09;100232.60;;;13.90
71205;BMP180;58935;54.498;18.544;2022-10-16T04:08:34;100236.40;;;13.90
71205;BMP180;58935;54.498;18.544;2022-10-16T04:11:02;100235.00;;;14.00
71205;BMP180;58935;54.498;18.544;2022-10-16T04:13:27;100241.00;;;14.00
71205;BMP180;58935;54.498;18.544;2022-10-16T04:15:53;100244.80;;;14.00
71205;BMP180;58935;54.498;18.544;2022-10-16T04:18:18;100241.40;;;14.02
71205;BMP180;58935;54.498;18.544;2022-10-16T04:20:43;100239.60;;;14.10
71205;BMP180;58935;54.498;18.544;2022-10-16T04:23:08;100239.40;;;14.10
71205;BMP180;58935;54.498;18.544;2022-10-16T04:25:34;100237.80;;;14.10
71205;BMP180;58935;54.498;18.544;2022-10-16T04:27:59;100246.20;;;14.10
71205;BMP180;58935;54.498;18.544;2022-10-16T04:30:24;100253.00;;;14.10
71205;BMP180;58935;54.498;18.544;2022-10-16T04:32:51;100249.00;;;14.10
71205;BMP180;58935;54.498;18.544;2022-10-16T04:35:17;100247.80;;;14.10
71205;BMP180;58935;54.498;18.544;2022-10-16T04:37:43;100243.80;;;14.10
71205;BMP180;58935;54.498;18.544;2022-10-16T04:40:08;100238.00;;;14.10
71205;BMP180;58935;54.498;18.544;2022-10-16T04:42:34;100238.80;;;14.10
71205;BMP180;58935;54.498;18.544;2022-10-16T04:44:59;100238.00;;;14.10
71205;BMP180;58935;54.498;18.544;2022-10-16T04:47:24;100250.20;;;14.10
71205;BMP180;58935;54.498;18.544;2022-10-16T04:49:49;100250.60;;;14.10
71205;BMP180;58935;54.498;18.544;2022-10-16T04:52:15;100250.00;;;14.10
71205;BMP180;58935;54.498;18.544;2022-10-16T04:54:40;100236.40;;;14.10
71205;BMP180;58935;54.498;18.544;2022-10-16T04:57:05;100236.60;;;14.10
71205;BMP180;58935;54.498;18.544;2022-10-16T04:59:31;100250.40;;;14.10
71205;BMP180;58935;54.498;18.544;2022-10-16T05:01:56;100252.00;;;14.10
71205;BMP180;58935;54.498;18.544;2022-10-16T05:04:21;100240.80;;;14.16
71205;BMP180;58935;54.498;18.544;2022-10-16T05:06:47;100238.60;;;14.14
71205;BMP180;58935;54.498;18.544;2022-10-16T05:09:12;100253.80;;;14.14
71205;BMP180;58935;54.498;18.544;2022-10-16T05:11:37;100260.00;;;14.16
71205;BMP180;58935;54.498;18.544;2022-10-16T05:14:03;100258.60;;;14.12
71205;BMP180;58935;54.498;18.544;2022-10-16T05:16:28;100264.60;;;14.18
71205;BMP180;58935;54.498;18.544;2022-10-16T05:18:53;100263.40;;;14.12
71205;BMP180;58935;54.498;18.544;2022-10-16T05:21:19;100262.80;;;14.18
71205;BMP180;58935;54.498;18.544;2022-10-16T05:23:45;100259.80;;;14.16
71205;BMP180;58935;54.498;18.544;2022-10-16T05:26:10;100255.40;;;14.12
71205;BMP180;58935;54.498;18.544;2022-10-16T05:28:35;100262.00;;;14.10
71205;BMP180;58935;54.498;18.544;2022-10-16T05:31:05;100259.80;;;14.12
71205;BMP180;58935;54.498;18.544;2022-10-16T05:33:31;100261.60;;;14.10
71205;BMP180;58935;54.498;18.544;2022-10-16T05:35:56;100265.80;;;14.12
71205;BMP180;58935;54.498;18.544;2022-10-16T05:38:21;100266.80;;;14.16
71205;BMP180;58935;54.498;18.544;2022-10-16T05:40:50;100267.00;;;14.20
71205;BMP180;58935;54.498;18.544;2022-10-16T05:43:16;100271.20;;;14.20
71205;BMP180;58935;54.498;18.544;2022-10-16T05:45:41;100271.80;;;14.20
71205;BMP180;58935;54.498;18.544;2022-10-16T05:48:07;100265.60;;;14.20
71205;BMP180;58935;54.498;18.544;2022-10-16T05:50:32;100264.20;;;14.20
71205;BMP180;58935;54.498;18.544;2022-10-16T05:52:57;100267.80;;;14.30
71205;BMP180;58935;54.498;18.544;2022-10-16T05:55:22;100270.40;;;14.30
71205;BMP180;58935;54.498;18.544;2022-10-16T05:57:48;100275.40;;;14.30
71205;BMP180;58935;54.498;18.544;2022-10-16T06:00:13;100288.40;;;14.30
71205;BMP180;58935;54.498;18.544;2022-10-16T06:02:38;100294.80;;;14.30
71205;BMP180;58935;54.498;18.544;2022-10-16T06:05:04;100299.40;;;14.40
71205;BMP180;58935;54.498;18.544;2022-10-16T06:07:34;100297.40;;;14.40
71205;BMP180;58935;54.498;18.544;2022-10-16T06:09:59;100303.40;;;14.40
71205;BMP180;58935;54.498;18.544;2022-10-16T06:12:26;100306.80;;;14.40
71205;BMP180;58935;54.498;18.544;2022-10-16T06:14:51;100301.80;;;14.40
71205;BMP180;58935;54.498;18.544;2022-10-16T06:17:16;100317.20;;;14.40
71205;BMP180;58935;54.498;18.544;2022-10-16T06:19:42;100314.60;;;14.40
71205;BMP180;58935;54.498;18.544;2022-10-16T06:22:07;100323.00;;;14.40
71205;BMP180;58935;54.498;18.544;2022-10-16T06:24:32;100336.40;;;14.34
71205;BMP180;58935;54.498;18.544;2022-10-16T06:26:57;100335.60;;;14.30
71205;BMP180;58935;54.498;18.544;2022-10-16T06:29:23;100336.60;;;14.30
71205;BMP180;58935;54.498;18.544;2022-10-16T06:31:48;100343.40;;;14.30
71205;BMP180;58935;54.498;18.544;2022-10-16T06:34:13;100344.00;;;14.24
71205;BMP180;58935;54.498;18.544;2022-10-16T06:36:39;100359.40;;;14.20
71205;BMP180;58935;54.498;18.544;2022-10-16T06:39:05;100350.80;;;14.20
71205;BMP180;58935;54.498;18.544;2022-10-16T06:41:32;100340.20;;;14.20
71205;BMP180;58935;54.498;18.544;2022-10-16T06:43:58;100341.40;;;14.20
71205;BMP180;58935;54.498;18.544;2022-10-16T06:46:24;100348.80;;;14.20
71205;BMP180;58935;54.498;18.544;2022-10-16T06:48:50;100350.80;;;14.20
71205;BMP180;58935;54.498;18.544;2022-10-16T06:51:18;100349.60;;;14.20
71205;BMP180;58935;54.498;18.544;2022-10-16T06:53:46;100348.40;;;14.20
71205;BMP180;58935;54.498;18.544;2022-10-16T06:56:16;100353.00;;;14.20
71205;BMP180;58935;54.498;18.544;2022-10-16T06:58:42;100359.20;;;14.20
71205;BMP180;58935;54.498;18.544;2022-10-16T07:01:08;100368.00;;;14.20
71205;BMP180;58935;54.498;18.544;2022-10-16T07:03:37;100365.80;;;14.20
71205;BMP180;58935;54.498;18.544;2022-10-16T07:06:04;100364.40;;;14.28
71205;BMP180;58935;54.498;18.544;2022-10-16T07:08:32;100365.20;;;14.30
71205;BMP180;58935;54.498;18.544;2022-10-16T07:11:00;100354.60;;;14.30
71205;BMP180;58935;54.498;18.544;2022-10-16T07:13:25;100351.80;;;14.30
71205;BMP180;58935;54.498;18.544;2022-10-16T07:15:50;100356.80;;;14.30
71205;BMP180;58935;54.498;18.544;2022-10-16T07:18:16;100358.20;;;14.38
71205;BMP180;58935;54.498;18.544;2022-10-16T07:20:41;100348.80;;;14.40
71205;BMP180;58935;54.498;18.544;2022-10-16T07:23:06;100345.40;;;14.40
71205;BMP180;58935;54.498;18.544;2022-10-16T07:25:31;100347.20;;;14.40
71205;BMP180;58935;54.498;18.544;2022-10-16T07:27:57;100343.20;;;14.40
71205;BMP180;58935;54.498;18.544;2022-10-16T07:30:22;100344.40;;;14.40
71205;BMP180;58935;54.498;18.544;2022-10-16T07:32:48;100334.00;;;14.40
71205;BMP180;58935;54.498;18.544;2022-10-16T07:35:13;100337.20;;;14.50
71205;BMP180;58935;54.498;18.544;2022-10-16T07:37:38;100350.00;;;14.50
71205;BMP180;58935;54.498;18.544;2022-10-16T07:40:04;100362.60;;;14.50
71205;BMP180;58935;54.498;18.544;2022-10-16T07:42:29;100362.60;;;14.60
71205;BMP180;58935;54.498;18.544;2022-10-16T07:44:55;100362.40;;;14.60
71205;BMP180;58935;54.498;18.544;2022-10-16T07:47:20;100375.40;;;14.60
71205;BMP180;58935;54.498;18.544;2022-10-16T07:49:45;100375.60;;;14.68
71205;BMP180;58935;54.498;18.544;2022-10-16T07:52:10;100375.60;;;14.70
71205;BMP180;58935;54.498;18.544;2022-10-16T07:54:36;100382.60;;;14.70
71205;BMP180;58935;54.498;18.544;2022-10-16T07:57:01;100375.40;;;14.72
71205;BMP180;58935;54.498;18.544;2022-10-16T07:59:26;100381.00;;;14.80
71205;BMP180;58935;54.498;18.544;2022-10-16T08:01:52;100386.40;;;14.88
71205;BMP180;58935;54.498;18.544;2022-10-16T08:04:17;100391.80;;;14.90
71205;BMP180;58935;54.498;18.544;2022-10-16T08:06:42;100400.00;;;15.00
71205;BMP180;58935;54.498;18.544;2022-10-16T08:09:08;100396.80;;;15.00
71205;BMP180;58935;54.498;18.544;2022-10-16T08:11:34;100407.40;;;15.00
71205;BMP180;58935;54.498;18.544;2022-10-16T08:13:59;100410.20;;;15.10
71205;BMP180;58935;54.498;18.544;2022-10-16T08:16:24;100418.40;;;15.10
71205;BMP180;58935;54.498;18.544;2022-10-16T08:18:50;100423.80;;;15.10
71205;BMP180;58935;54.498;18.544;2022-10-16T08:21:18;100428.60;;;15.10
71205;BMP180;58935;54.498;18.544;2022-10-16T08:23:43;100435.00;;;15.10
71205;BMP180;58935;54.498;18.544;2022-10-16T08:26:11;100435.00;;;15.10
71205;BMP180;58935;54.498;18.544;2022-10-16T08:28:37;100431.20;;;15.10
71205;BMP180;58935;54.498;18.544;2022-10-16T08:31:06;100433.20;;;15.10
71205;BMP180;58935;54.498;18.544;2022-10-16T08:33:31;100429.00;;;15.12
71205;BMP180;58935;54.498;18.544;2022-10-16T08:35:56;100427.80;;;15.20
71205;BMP180;58935;54.498;18.544;2022-10-16T08:38:21;100428.20;;;15.20
71205;BMP180;58935;54.498;18.544;2022-10-16T08:40:47;100432.40;;;15.28
71205;BMP180;58935;54.498;18.544;2022-10-16T08:43:20;100433.60;;;15.30
71205;BMP180;58935;54.498;18.544;2022-10-16T08:46:02;100439.20;;;15.30
71205;BMP180;58935;54.498;18.544;2022-10-16T08:48:36;100443.20;;;15.40
71205;BMP180;58935;54.498;18.544;2022-10-16T08:51:04;100449.40;;;15.40
71205;BMP180;58935;54.498;18.544;2022-10-16T08:53:36;100453.20;;;15.50
71205;BMP180;58935;54.498;18.544;2022-10-16T08:56:03;100449.60;;;15.50
71205;BMP180;58935;54.498;18.544;2022-10-16T08:58:30;100446.60;;;15.60
71205;BMP180;58935;54.498;18.544;2022-10-16T09:00:59;100453.00;;;15.60
71205;BMP180;58935;54.498;18.544;2022-10-16T09:03:32;100454.60;;;15.70
71205;BMP180;58935;54.498;18.544;2022-10-16T09:14:04;100450.60;;;15.80
71205;BMP180;58935;54.498;18.544;2022-10-16T09:16:36;100460.60;;;15.80
71205;BMP180;58935;54.498;18.544;2022-10-16T09:21:52;100467.20;;;15.90
71205;BMP180;58935;54.498;18.544;2022-10-16T09:24:21;100468.00;;;15.90
71205;BMP180;58935;54.498;18.544;2022-10-16T09:26:49;100466.40;;;15.86
71205;BMP180;58935;54.498;18.544;2022-10-16T09:29:16;100469.00;;;15.80
71205;BMP180;58935;54.498;18.544;2022-10-16T09:31:42;100472.40;;;15.88
71205;BMP180;58935;54.498;18.544;2022-10-16T09:34:17;100473.80;;;15.90
71205;BMP180;58935;54.498;18.544;2022-10-16T09:36:46;100478.00;;;16.00
71205;BMP180;58935;54.498;18.544;2022-10-16T09:39:12;100474.40;;;16.06
71205;BMP180;58935;54.498;18.544;2022-10-16T09:41:39;100480.20;;;16.10
71205;BMP180;58935;54.498;18.544;2022-10-16T09:44:20;100482.00;;;16.10
71205;BMP180;58935;54.498;18.544;2022-10-16T09:46:46;100484.60;;;16.10
71205;BMP180;58935;54.498;18.544;2022-10-16T09:49:26;100481.60;;;16.10
71205;BMP180;58935;54.498;18.544;2022-10-16T09:54:23;100495.40;;;16.02
71205;BMP180;58935;54.498;18.544;2022-10-16T09:56:48;100501.00;;;16.00
71205;BMP180;58935;54.498;18.544;2022-10-16T09:59:19;100504.20;;;16.00
71205;BMP180;58935;54.498;18.544;2022-10-16T10:01:48;100507.40;;;15.90
71205;BMP180;58935;54.498;18.544;2022-10-16T10:04:13;100508.40;;;15.90
71205;BMP180;58935;54.498;18.544;2022-10-16T10:06:44;100496.60;;;15.90
71205;BMP180;58935;54.498;18.544;2022-10-16T10:09:15;100505.00;;;15.90
71205;BMP180;58935;54.498;18.544;2022-10-16T10:14:17;100502.00;;;15.96
71205;BMP180;58935;54.498;18.544;2022-10-16T10:16:43;100505.20;;;16.00
71205;BMP180;58935;54.498;18.544;2022-10-16T10:21:40;100518.40;;;16.00
71205;BMP180;58935;54.498;18.544;2022-10-16T10:24:10;100523.40;;;16.00
71205;BMP180;58935;54.498;18.544;2022-10-16T10:26:35;100529.00;;;16.00
71205;BMP180;58935;54.498;18.544;2022-10-16T10:29:11;100522.60;;;16.10
71205;BMP180;58935;54.498;18.544;2022-10-16T10:31:54;100514.40;;;16.10
71205;BMP180;58935;54.498;18.544;2022-10-16T10:34:35;100518.20;;;16.14
71205;BMP180;58935;54.498;18.544;2022-10-16T10:40:02;100533.00;;;16.10
71205;BMP180;58935;54.498;18.544;2022-10-16T10:42:47;100530.80;;;16.10
71205;BMP180;58935;54.498;18.544;2022-10-16T10:45:19;100539.00;;;16.10
71205;BMP180;58935;54.498;18.544;2022-10-16T10:47:52;100536.80;;;16.18
71205;BMP180;58935;54.498;18.544;2022-10-16T10:50:25;100536.40;;;16.20
71205;BMP180;58935;54.498;18.544;2022-10-16T10:53:03;100534.80;;;16.20
71205;BMP180;58935;54.498;18.544;2022-10-16T11:00:41;100543.40;;;16.40
71205;BMP180;58935;54.498;18.544;2022-10-16T11:05:42;100539.80;;;16.58
71205;BMP180;58935;54.498;18.544;2022-10-16T11:08:14;100538.20;;;16.64
71205;BMP180;58935;54.498;18.544;2022-10-16T11:10:48;100534.40;;;16.72
71205;BMP180;58935;54.498;18.544;2022-10-16T11:13:22;100541.60;;;16.84
71205;BMP180;58935;54.498;18.544;2022-10-16T11:15:50;100530.40;;;17.00
71205;BMP180;58935;54.498;18.544;2022-10-16T11:18:22;100528.20;;;17.10
71205;BMP180;58935;54.498;18.544;2022-10-16T11:20:54;100530.80;;;17.20
71205;BMP180;58935;54.498;18.544;2022-10-16T11:23:33;100529.80;;;17.30
71205;BMP180;58935;54.498;18.544;2022-10-16T11:26:06;100532.80;;;17.40
71205;BMP180;58935;54.498;18.544;2022-10-16T11:28:38;100533.00;;;17.50
71205;BMP180;58935;54.498;18.544;2022-10-16T11:31:19;100545.40;;;17.60
71205;BMP180;58935;54.498;18.544;2022-10-16T11:36:23;100533.40;;;17.64
71205;BMP180;58935;54.498;18.544;2022-10-16T11:38:56;100533.80;;;17.70
71205;BMP180;58935;54.498;18.544;2022-10-16T11:41:32;100527.00;;;17.70
71205;BMP180;58935;54.498;18.544;2022-10-16T11:44:06;100528.20;;;17.60
71205;BMP180;58935;54.498;18.544;2022-10-16T11:46:36;100533.40;;;17.60
71205;BMP180;58935;54.498;18.544;2022-10-16T11:49:09;100536.40;;;17.70
71205;BMP180;58935;54.498;18.544;2022-10-16T11:51:40;100541.40;;;17.70
71205;BMP180;58935;54.498;18.544;2022-10-16T11:56:39;100541.00;;;17.80
71205;BMP180;58935;54.498;18.544;2022-10-16T11:59:15;100541.60;;;17.80
71205;BMP180;58935;54.498;18.544;2022-10-16T12:01:47;100534.80;;;17.90
71205;BMP180;58935;54.498;18.544;2022-10-16T12:04:30;100543.60;;;17.90
71205;BMP180;58935;54.498;18.544;2022-10-16T12:07:03;100548.00;;;17.90
71205;BMP180;58935;54.498;18.544;2022-10-16T12:09:31;100548.80;;;17.86
71205;BMP180;58935;54.498;18.544;2022-10-16T12:11:58;100551.40;;;17.88
71205;BMP180;58935;54.498;18.544;2022-10-16T12:14:36;100558.80;;;17.90
71205;BMP180;58935;54.498;18.544;2022-10-16T12:17:22;100559.00;;;17.90
71205;BMP180;58935;54.498;18.544;2022-10-16T12:22:18;100553.80;;;17.90
71205;BMP180;58935;54.498;18.544;2022-10-16T12:24:44;100555.60;;;17.90
71205;BMP180;58935;54.498;18.544;2022-10-16T12:29:41;100552.40;;;18.00
71205;BMP180;58935;54.498;18.544;2022-10-16T12:34:42;100567.20;;;18.10
71205;BMP180;58935;54.498;18.544;2022-10-16T12:37:15;100569.40;;;18.20
71205;BMP180;58935;54.498;18.544;2022-10-16T12:39:45;100580.60;;;18.30
71205;BMP180;58935;54.498;18.544;2022-10-16T12:44:42;100583.20;;;18.48
71205;BMP180;58935;54.498;18.544;2022-10-16T12:47:19;100587.20;;;18.50
71205;BMP180;58935;54.498;18.544;2022-10-16T12:49:49;100581.40;;;18.50
71205;BMP180;58935;54.498;18.544;2022-10-16T12:54:46;100584.00;;;18.54
71205;BMP180;58935;54.498;18.544;2022-10-16T12:57:30;100580.40;;;18.60
71205;BMP180;58935;54.498;18.544;2022-10-16T13:00:04;100585.60;;;18.70
71205;BMP180;58935;54.498;18.544;2022-10-16T13:08:22;100591.20;;;18.60
71205;BMP180;58935;54.498;18.544;2022-10-16T13:13:36;100584.00;;;18.50
71205;BMP180;58935;54.498;18.544;2022-10-16T13:16:13;100590.20;;;18.50
71205;BMP180;58935;54.498;18.544;2022-10-16T13:21:18;100592.40;;;18.40
71205;BMP180;58935;54.498;18.544;2022-10-16T13:26:28;100590.80;;;18.30
71205;BMP180;58935;54.498;18.544;2022-10-16T13:29:00;100590.40;;;18.28
71205;BMP180;58935;54.498;18.544;2022-10-16T13:31:26;100593.80;;;18.20
71205;BMP180;58935;54.498;18.544;2022-10-16T13:33:54;100603.80;;;18.20
71205;BMP180;58935;54.498;18.544;2022-10-16T13:36:25;100609.80;;;18.20
71205;BMP180;58935;54.498;18.544;2022-10-16T13:41:22;100616.80;;;18.10
71205;BMP180;58935;54.498;18.544;2022-10-16T13:43:51;100619.80;;;18.10
71205;BMP180;58935;54.498;18.544;2022-10-16T13:46:19;100624.60;;;18.10
71205;BMP180;58935;54.498;18.544;2022-10-16T13:48:57;100622.60;;;18.00
71205;BMP180;58935;54.498;18.544;2022-10-16T13:51:23;100626.80;;;17.90
71205;BMP180;58935;54.498;18.544;2022-10-16T13:53:49;100632.00;;;17.90
71205;BMP180;58935;54.498;18.544;2022-10-16T13:56:18;100633.60;;;17.84
71205;BMP180;58935;54.498;18.544;2022-10-16T13:58:44;100636.00;;;17.80
71205;BMP180;58935;54.498;18.544;2022-10-16T14:03:41;100639.40;;;17.74
71205;BMP180;58935;54.498;18.544;2022-10-16T14:06:12;100634.40;;;17.74
71205;BMP180;58935;54.498;18.544;2022-10-16T14:08:42;100638.80;;;17.72
71205;BMP180;58935;54.498;18.544;2022-10-16T14:11:08;100648.80;;;17.70
71205;BMP180;58935;54.498;18.544;2022-10-16T14:13:37;100644.60;;;17.70
71205;BMP180;58935;54.498;18.544;2022-10-16T14:16:07;100648.40;;;17.70
71205;BMP180;58935;54.498;18.544;2022-10-16T14:18:34;100652.40;;;17.72
71205;BMP180;58935;54.498;18.544;2022-10-16T14:21:04;100650.20;;;17.80
71205;BMP180;58935;54.498;18.544;2022-10-16T14:23:33;100650.60;;;17.80
71205;BMP180;58935;54.498;18.544;2022-10-16T14:26:06;100651.40;;;17.90
71205;BMP180;58935;54.498;18.544;2022-10-16T14:28:31;100651.60;;;17.90
71205;BMP180;58935;54.498;18.544;2022-10-16T14:30:59;100656.00;;;17.94
71205;BMP180;58935;54.498;18.544;2022-10-16T14:33:32;100657.20;;;17.92
71205;BMP180;58935;54.498;18.544;2022-10-16T14:36:05;100657.00;;;17.90
71205;BMP180;58935;54.498;18.544;2022-10-16T14:38:31;100660.20;;;17.86
71205;BMP180;58935;54.498;18.544;2022-10-16T14:40:58;100661.20;;;17.80
71205;BMP180;58935;54.498;18.544;2022-10-16T14:43:32;100662.20;;;17.70
71205;BMP180;58935;54.498;18.544;2022-10-16T14:45:58;100668.00;;;17.64
71205;BMP180;58935;54.498;18.544;2022-10-16T14:48:23;100668.60;;;17.60
71205;BMP180;58935;54.498;18.544;2022-10-16T14:50:49;100659.60;;;17.50
71205;BMP180;58935;54.498;18.544;2022-10-16T14:53:14;100670.40;;;17.50
71205;BMP180;58935;54.498;18.544;2022-10-16T14:55:40;100670.60;;;17.40
71205;BMP180;58935;54.498;18.544;2022-10-16T14:58:15;100678.20;;;17.30